Time;durP1;ratioP1;P1;durP2;ratioP2;P2;SDS_P1;SDS_P2;PMS_P1;PMS_P2;Temp;Humidity;BMP_temperature;BMP_pressure;BME280_temperature;BME280_humidity;BME280_pressure;Samples;Min_cycle;Max_cycle;Signal;HPM_P1;HPM_P2
2024/04/02 00:01:11;;;;;;;0.70;0.60;;;9.00;76.20;;;10.62;55.71;96638.84;5013274;28;20044;-42
2024/04/02 00:03:42;;;;;;;0.43;0.43;;;9.10;76.00;;;10.60;55.97;96642.69;5028971;28;20531;-41
2024/04/02 00:06:09;;;;;;;0.70;0.70;;;9.10;76.20;;;10.62;56.08;96652.16;5029631;28;20037;-42
2024/04/02 00:08:41;;;;;;;1.00;0.80;;;9.00;75.80;;;10.64;55.65;96649.28;5029317;28;20045;-42
2024/04/02 00:11:07;;;;;;;0.67;0.67;;;9.10;76.20;;;10.63;55.90;96655.63;5029254;28;20045;-42
2024/04/02 00:13:34;;;;;;;1.03;0.90;;;9.10;75.90;;;10.61;55.87;96666.44;5028749;28;20033;-42
2024/04/02 00:16:02;;;;;;;0.80;0.80;;;9.10;76.10;;;10.61;55.83;96663.78;5013053;28;20463;-42
2024/04/02 00:18:29;;;;;;;0.80;0.80;;;9.10;76.00;;;10.62;55.38;96676.09;5029307;28;20045;-42
2024/04/02 00:21:00;;;;;;;2.17;0.87;;;9.10;75.50;;;10.62;55.74;96678.75;5026962;28;20110;-42
2024/04/02 00:23:27;;;;;;;1.03;0.80;;;9.10;75.50;;;10.60;55.57;96675.47;5028597;28;20456;-42
2024/04/02 00:26:02;;;;;;;0.97;0.80;;;9.10;75.30;;;10.58;55.95;96679.28;5029279;28;20404;-42
2024/04/02 00:28:29;;;;;;;0.70;0.70;;;9.10;75.10;;;10.56;55.77;96678.66;5029241;28;20512;-42
2024/04/02 00:31:02;;;;;;;0.70;0.70;;;9.10;75.10;;;10.56;55.90;96687.47;5029226;28;20519;-42
2024/04/02 00:33:29;;;;;;;1.45;0.70;;;9.10;75.30;;;10.58;55.80;96688.09;5028698;28;20041;-42
2024/04/02 00:36:06;;;;;;;0.70;0.70;;;9.10;75.30;;;10.59;55.73;96688.94;5029257;28;20030;-42
2024/04/02 00:38:33;;;;;;;0.73;0.63;;;9.10;75.50;;;10.56;55.78;96690.13;5031337;28;20045;-42
2024/04/02 00:41:00;;;;;;;1.43;0.70;;;9.10;75.40;;;10.52;55.91;96701.31;5032745;28;20040;-42
2024/04/02 00:43:27;;;;;;;0.93;0.73;;;9.10;75.40;;;10.46;56.10;96692.25;5032243;28;20044;-42
2024/04/02 00:45:55;;;;;;;1.63;0.80;;;9.10;75.60;;;10.46;56.27;96694.91;5016493;28;20412;-42
2024/04/02 00:48:23;;;;;;;0.83;0.83;;;9.10;75.50;;;10.47;56.34;96693.06;5016367;28;20037;-42
2024/04/02 00:50:50;;;;;;;1.00;0.70;;;9.10;75.40;;;10.49;56.23;96704.34;5032460;28;20033;-42
2024/04/02 00:53:19;;;;;;;0.70;0.70;;;9.10;75.40;;;10.49;55.74;96709.66;5032316;28;20045;-42
2024/04/02 00:55:46;;;;;;;1.63;0.90;;;9.10;75.50;;;10.49;56.21;96704.34;5032555;28;20029;-42
2024/04/02 00:58:15;;;;;;;1.30;0.70;;;9.10;75.20;;;10.46;56.16;96710.88;5016320;28;20068;-43
2024/04/02 01:00:43;;;;;;;1.57;1.40;;;9.10;75.30;;;10.48;55.78;96718.69;5032544;28;20290;-42
2024/04/02 01:03:10;;;;;;;0.80;0.80;;;9.10;75.40;;;10.49;56.05;96717.66;5016276;28;20488;-42
2024/04/02 01:05:39;;;;;;;1.03;0.90;;;9.10;75.10;;;10.49;55.95;96728.28;5016189;28;20444;-42
2024/04/02 01:08:08;;;;;;;0.87;0.60;;;9.10;75.40;;;10.49;56.36;96729.13;5032790;28;20041;-42
2024/04/02 01:10:35;;;;;;;1.27;0.80;;;9.10;75.40;;;10.53;56.32;96729.59;5032610;28;20056;-42
2024/04/02 01:13:01;;;;;;;1.47;1.37;;;9.20;75.10;;;10.54;56.32;96732.06;5032039;28;20042;-42
2024/04/02 01:15:28;;;;;;;1.37;0.70;;;9.20;75.20;;;10.57;56.00;96736.22;5032341;28;20033;-42
2024/04/02 01:17:55;;;;;;;1.10;0.80;;;9.20;75.00;;;10.56;55.60;96738.03;5032507;28;20045;-42
2024/04/02 01:20:22;;;;;;;1.20;0.70;;;9.20;74.80;;;10.56;55.98;96738.03;5031943;28;20037;-42
2024/04/02 01:22:50;;;;;;;0.60;0.60;;;9.10;74.80;;;10.58;55.99;96741.31;5014750;28;20044;-42
2024/04/02 01:25:23;;;;;;;0.67;0.67;;;9.20;74.60;;;10.59;55.78;96744.84;5032239;28;20037;-42
2024/04/02 01:27:50;;;;;;;1.05;0.60;;;9.20;74.40;;;10.57;55.47;96738.88;5024873;28;20044;-42
2024/04/02 01:30:16;;;;;;;1.50;1.10;;;9.10;74.70;;;10.52;55.47;96735.91;5031925;28;20046;-42
2024/04/02 01:32:43;;;;;;;0.73;0.60;;;9.10;74.80;;;10.51;55.64;96737.75;5031692;28;20041;-42
2024/04/02 01:35:13;;;;;;;0.80;0.80;;;9.10;74.90;;;10.48;55.71;96740.78;5032174;28;20041;-42
2024/04/02 01:37:41;;;;;;;1.30;0.80;;;9.00;74.90;;;10.44;55.92;96737.66;5016015;28;20152;-42
2024/04/02 01:40:08;;;;;;;1.40;0.53;;;9.00;74.80;;;10.39;55.42;96742.72;5032052;28;20382;-42
2024/04/02 01:42:36;;;;;;;1.57;0.87;;;9.00;74.80;;;10.37;55.83;96731.44;5031277;28;20930;-42
2024/04/02 01:45:03;;;;;;;2.17;0.77;;;9.00;74.70;;;10.35;55.98;96746.75;5031846;28;20049;-41
2024/04/02 01:47:30;;;;;;;1.03;0.70;;;8.90;74.80;;;10.37;55.92;96738.56;5031566;28;20416;-44
2024/04/02 01:49:57;;;;;;;0.73;0.60;;;8.90;75.00;;;10.33;55.54;96739.94;5031365;28;20437;-42
2024/04/02 01:52:24;;;;;;;0.93;0.77;;;8.90;74.90;;;10.30;55.73;96740.28;5014821;28;20052;-42
2024/04/02 01:54:50;;;;;;;1.23;1.13;;;8.80;74.80;;;10.32;55.89;96754.25;5031577;28;20041;-42
2024/04/02 01:57:17;;;;;;;2.53;0.63;;;8.80;75.20;;;10.31;55.75;96758.72;5031542;28;20113;-42
2024/04/02 01:59:44;;;;;;;1.27;0.93;;;8.80;75.00;;;10.31;55.70;96769.38;5031059;28;20033;-42
2024/04/02 02:02:10;;;;;;;0.90;0.90;;;8.80;75.30;;;10.34;55.83;96771.69;5030991;28;20037;-41
2024/04/02 02:04:37;;;;;;;1.00;0.90;;;8.90;75.40;;;10.36;56.10;96782.16;5030966;28;20461;-41
2024/04/02 02:07:04;;;;;;;0.97;0.73;;;8.90;75.10;;;10.32;55.76;96773.72;5031675;28;20048;-42
2024/04/02 02:09:30;;;;;;;0.80;0.73;;;8.90;75.10;;;10.32;55.87;96776.38;5031355;28;20045;-42
2024/04/02 02:11:57;;;;;;;1.77;1.20;;;8.90;74.80;;;10.35;56.13;96780.50;5030820;28;20124;-42
2024/04/02 02:14:24;;;;;;;1.50;0.73;;;8.90;74.70;;;10.34;55.68;96778.84;5031086;28;20048;-42
2024/04/02 02:16:50;;;;;;;1.10;0.93;;;9.00;74.50;;;10.37;56.06;96781.13;5031286;28;20037;-41
2024/04/02 02:19:17;;;;;;;0.80;0.60;;;9.00;74.40;;;10.39;56.10;96789.75;5014627;28;20052;-42
2024/04/02 02:21:46;;;;;;;2.40;0.80;;;9.00;74.30;;;10.41;56.10;96780.59;5030774;28;20038;-41
2024/04/02 02:24:13;;;;;;;0.50;0.50;;;9.00;74.60;;;10.41;56.00;96785.94;5030351;28;20045;-42
2024/04/02 02:26:39;;;;;;;1.43;0.90;;;9.00;74.50;;;10.43;56.00;96783.09;5014642;28;20041;-42
2024/04/02 02:29:06;;;;;;;0.87;0.73;;;9.00;74.10;;;10.41;55.82;96782.41;5031192;28;20045;-41
2024/04/02 02:31:38;;;;;;;1.03;0.53;;;9.00;74.20;;;10.42;55.64;96786.75;5030703;28;20065;-42
2024/04/02 02:34:05;;;;;;;0.97;0.80;;;9.00;74.00;;;10.42;55.28;96789.41;5030855;28;20508;-42
2024/04/02 02:36:32;;;;;;;1.13;0.80;;;9.00;73.70;;;10.40;55.74;96791.44;5030625;28;20038;-41
2024/04/02 02:38:58;;;;;;;0.90;0.80;;;9.00;73.70;;;10.35;55.74;96791.13;5030842;28;20038;-41
2024/04/02 02:41:25;;;;;;;1.13;0.77;;;9.00;73.90;;;10.36;55.61;96811.44;5030715;28;20049;-41
2024/04/02 02:43:53;;;;;;;2.17;0.87;;;9.00;73.90;;;10.35;55.74;96807.09;5030170;28;20413;-42
2024/04/02 02:46:19;;;;;;;1.00;0.80;;;9.00;73.80;;;10.34;55.83;96810.78;5030741;28;20531;-41
2024/04/02 02:48:46;;;;;;;1.40;0.70;;;9.00;73.80;;;10.33;55.73;96799.31;5014392;28;20045;-41
2024/04/02 02:51:12;;;;;;;1.20;0.70;;;9.00;74.00;;;10.35;55.68;96799.13;5030581;28;20046;-41
2024/04/02 02:53:39;;;;;;;6.30;1.53;;;9.00;74.10;;;10.36;55.73;96809.59;5029854;28;20064;-41
2024/04/02 02:56:06;;;;;;;1.63;1.53;;;9.00;74.90;;;10.35;55.85;96802.63;5014282;28;20038;-42
2024/04/02 02:58:33;;;;;;;0.70;0.60;;;9.00;74.20;;;10.34;56.27;96811.59;5030380;28;20045;-41
2024/04/02 03:01:05;;;;;;;3.30;0.93;;;9.00;74.60;;;10.35;56.07;96810.59;5029819;28;20044;-41
2024/04/02 03:03:31;;;;;;;0.60;0.60;;;9.00;75.10;;;10.37;55.88;96815.72;5029988;28;20050;-40
2024/04/02 03:05:58;;;;;;;0.77;0.70;;;9.00;74.80;;;10.37;56.16;96813.06;5030275;28;20048;-41
2024/04/02 03:08:25;;;;;;;0.70;0.70;;;9.00;75.20;;;10.39;56.39;96813.72;5013947;28;20093;-42
2024/04/02 03:11:05;;;;;;;1.10;0.97;;;9.00;75.70;;;10.38;56.22;96825.38;5030331;28;20041;-42
2024/04/02 03:13:33;;;;;;;0.50;0.50;;;8.90;75.90;;;10.36;56.25;96819.41;5029674;28;20056;-42
2024/04/02 03:16:03;;;;;;;1.07;0.80;;;8.90;75.80;;;10.33;55.84;96833.06;5029968;28;20078;-42
2024/04/02 03:18:30;;;;;;;2.23;0.83;;;9.00;75.70;;;10.30;56.03;96820.09;5029718;28;20052;-42
2024/04/02 03:21:01;;;;;;;0.97;0.73;;;9.00;75.80;;;10.30;56.34;96826.28;5026145;28;20048;-42
2024/04/02 03:23:28;;;;;;;1.07;0.80;;;8.90;75.60;;;10.27;56.07;96825.75;5029594;28;20041;-42
2024/04/02 03:26:00;;;;;;;1.60;0.77;;;8.90;75.70;;;10.28;56.08;96824.78;5030057;28;20041;-42
2024/04/02 03:28:31;;;;;;;1.10;0.90;;;8.80;75.50;;;10.29;56.38;96829.06;4997253;28;20050;-41
2024/04/02 03:31:01;;;;;;;0.63;0.60;;;8.90;75.80;;;10.27;56.23;96831.09;5029807;28;20423;-42
2024/04/02 03:33:29;;;;;;;2.60;1.20;;;8.80;75.90;;;10.24;56.01;96835.75;5029464;28;20397;-42
2024/04/02 03:36:06;;;;;;;1.30;0.77;;;8.80;76.00;;;10.20;56.47;96834.47;5029906;28;20040;-42
2024/04/02 03:38:34;;;;;;;0.70;0.70;;;8.80;76.10;;;10.17;56.44;96832.16;5029543;28;20046;-41
2024/04/02 03:41:13;;;;;;;0.80;0.80;;;8.70;76.10;;;10.14;56.28;96835.19;5029865;28;20045;-42
2024/04/02 03:43:42;;;;;;;2.10;1.03;;;8.70;76.10;;;10.11;56.29;96840.84;5012857;28;20037;-41
2024/04/02 03:46:10;;;;;;;1.40;1.10;;;8.70;76.40;;;10.10;56.48;96836.56;5029745;28;20072;-42
2024/04/02 03:48:37;;;;;;;1.03;0.70;;;8.70;76.30;;;10.10;56.53;96841.00;5029639;28;20050;-42
2024/04/02 03:51:04;;;;;;;1.53;0.70;;;8.70;76.10;;;10.10;56.71;96839.22;5029590;28;20053;-42
2024/04/02 03:53:31;;;;;;;0.80;0.70;;;8.70;76.30;;;10.09;56.82;96845.50;5029267;28;20363;-42
2024/04/02 03:56:00;;;;;;;0.97;0.83;;;8.70;76.50;;;10.08;56.71;96846.53;4996736;28;20034;-41
2024/04/02 03:58:27;;;;;;;0.90;0.80;;;8.70;76.40;;;10.07;56.89;96847.53;5029598;28;20068;-41
2024/04/02 04:00:54;;;;;;;0.87;0.60;;;8.70;76.50;;;10.10;56.64;96847.19;5029732;28;20053;-41
2024/04/02 04:03:22;;;;;;;0.83;0.50;;;8.70;76.70;;;10.11;56.61;96855.97;5012982;28;20381;-42
2024/04/02 04:06:03;;;;;;;0.87;0.70;;;8.70;76.50;;;10.09;56.43;96856.16;5013051;28;20056;-42
2024/04/02 04:08:32;;;;;;;0.60;0.60;;;8.70;76.30;;;10.04;56.69;96859.34;5029454;28;20049;-42
2024/04/02 04:11:00;;;;;;;0.93;0.70;;;8.70;76.10;;;9.99;56.46;96864.38;5029683;28;20113;-42
2024/04/02 04:13:28;;;;;;;1.17;0.90;;;8.60;75.90;;;9.95;56.95;96863.06;5033007;28;20044;-42
2024/04/02 04:16:00;;;;;;;0.97;0.73;;;8.60;76.30;;;9.96;56.87;96864.72;5017488;28;20042;-42
2024/04/02 04:18:27;;;;;;;1.47;1.00;;;8.60;76.50;;;9.95;56.96;96859.59;5033516;28;20042;-41
2024/04/02 04:21:02;;;;;;;0.70;0.70;;;8.60;76.30;;;9.94;56.80;96868.56;5025516;28;20036;-41
2024/04/02 04:23:29;;;;;;;1.50;0.80;;;8.50;76.40;;;9.94;56.67;96880.00;5032624;28;20053;-41
2024/04/02 04:26:01;;;;;;;0.73;0.53;;;8.60;76.20;;;9.94;56.85;96881.84;5033103;28;20046;-42
2024/04/02 04:28:29;;;;;;;0.90;0.73;;;8.60;77.00;;;9.91;56.86;96888.34;5033006;28;20048;-42
2024/04/02 04:30:58;;;;;;;0.63;0.57;;;8.50;76.20;;;9.92;56.86;96897.16;5033108;28;20048;-41
2024/04/02 04:33:25;;;;;;;1.13;0.70;;;8.50;76.90;;;9.88;56.80;96896.66;5032683;28;20033;-41
2024/04/02 04:35:53;;;;;;;1.43;0.70;;;8.60;76.10;;;9.89;56.89;96894.84;5032928;28;20037;-41
2024/04/02 04:38:22;;;;;;;0.70;0.70;;;8.60;76.20;;;9.92;56.65;96895.31;5032795;28;20190;-41
2024/04/02 04:40:49;;;;;;;6.93;2.80;;;8.50;76.40;;;9.96;56.77;96898.47;5032727;28;20034;-42
2024/04/02 04:43:18;;;;;;;2.63;2.03;;;8.60;76.30;;;9.97;56.33;96902.78;5032650;28;20048;-42
2024/04/02 04:45:55;;;;;;;1.07;1.00;;;8.50;76.30;;;9.94;56.55;96900.47;5016438;28;20047;-42
2024/04/02 04:48:23;;;;;;;1.20;0.80;;;8.50;76.30;;;9.94;56.82;96903.94;5032880;28;20531;-42
2024/04/02 04:51:04;;;;;;;0.77;0.70;;;8.50;77.50;;;9.94;56.76;96925.22;5032526;28;20412;-42
2024/04/02 04:53:32;;;;;;;1.43;1.33;;;8.50;76.40;;;9.93;56.94;96915.59;5032165;28;20057;-42
2024/04/02 04:56:06;;;;;;;0.90;0.90;;;8.50;76.30;;;9.94;56.96;96917.22;5032149;28;20045;-42
2024/04/02 04:58:33;;;;;;;;;;;8.50;76.20;;;9.93;56.91;96920.09;5032831;28;20045;-42
2024/04/02 05:01:02;;;;;;;1.33;0.70;;;8.50;76.50;;;9.95;56.82;96932.19;5016269;28;19921;-42
2024/04/02 05:03:29;;;;;;;0.80;0.80;;;8.50;76.50;;;9.95;56.57;96928.72;5031954;28;20046;-42
2024/04/02 05:06:07;;;;;;;1.50;1.40;;;8.50;76.50;;;9.99;56.75;96936.16;5032418;28;20052;-42
2024/04/02 05:08:37;;;;;;;0.93;0.80;;;8.50;76.40;;;9.99;56.89;96933.50;5032308;28;20045;-42
2024/04/02 05:11:06;;;;;;;1.50;0.80;;;8.60;76.30;;;10.05;56.84;96938.13;5015756;28;20052;-42
2024/04/02 05:13:33;;;;;;;0.87;0.80;;;8.60;76.20;;;10.07;56.62;96945.94;5016125;28;20064;-42
2024/04/02 05:16:01;;;;;;;0.80;0.70;;;8.60;76.60;;;10.08;56.58;96947.59;5015829;28;20064;-43
2024/04/02 05:18:28;;;;;;;2.53;1.43;;;8.60;76.40;;;10.08;56.62;96941.44;5032233;28;20041;-42
2024/04/02 05:20:55;;;;;;;4.47;1.20;;;8.60;76.80;;;10.11;56.68;96951.72;5032298;28;20037;-42
2024/04/02 05:23:22;;;;;;;1.03;0.93;;;8.70;76.70;;;10.11;56.99;96947.22;5030272;28;20030;-42
2024/04/02 05:25:48;;;;;;;2.80;1.10;;;8.70;76.70;;;10.11;56.87;96957.88;5031665;28;20425;-42
2024/04/02 05:28:15;;;;;;;0.70;0.70;;;8.70;76.70;;;10.14;56.87;96960.19;5031991;28;20539;-42
2024/04/02 05:30:42;;;;;;;1.37;0.77;;;8.70;77.00;;;10.15;57.12;96958.34;5031975;28;20516;-42
2024/04/02 05:33:09;;;;;;;1.33;0.70;;;8.70;77.10;;;10.17;56.69;96965.16;5031443;28;20413;-42
2024/04/02 05:35:35;;;;;;;0.93;0.70;;;8.70;76.60;;;10.13;56.57;96961.19;5031257;28;20045;-42
2024/04/02 05:38:04;;;;;;;1.03;0.80;;;8.70;76.50;;;10.10;56.92;96961.53;5032042;28;20037;-42
2024/04/02 05:40:31;;;;;;;1.37;1.03;;;8.70;76.50;;;10.11;56.92;96955.22;5015453;28;20037;-42
2024/04/02 05:42:58;;;;;;;0.70;0.60;;;8.70;76.60;;;10.13;56.90;96958.53;5031302;28;20041;-42
2024/04/02 05:45:25;;;;;;;0.90;0.90;;;8.70;76.70;;;10.12;56.98;96967.53;5031476;28;20045;-42
2024/04/02 05:47:53;;;;;;;0.60;0.60;;;8.70;76.40;;;10.15;56.64;96974.31;5015124;28;20037;-42
2024/04/02 05:50:20;;;;;;;1.80;0.70;;;8.70;76.60;;;10.19;56.66;96979.09;5031840;28;20416;-41
2024/04/02 05:52:47;;;;;;;1.07;0.60;;;8.70;76.90;;;10.27;56.67;96982.72;5031589;28;20061;-42
2024/04/02 05:55:13;;;;;;;0.67;0.67;;;8.80;76.50;;;10.31;56.98;96992.03;5031309;28;20049;-42
2024/04/02 05:57:40;;;;;;;0.60;0.60;;;8.90;76.80;;;10.37;56.88;96996.66;5031810;28;20049;-42
2024/04/02 06:00:08;;;;;;;2.00;0.80;;;9.00;76.30;;;10.43;56.77;96994.13;5015117;28;20040;-41
2024/04/02 06:02:42;;;;;;;3.58;0.95;;;9.00;76.10;;;10.47;56.71;96991.09;5031014;28;20413;-42
2024/04/02 06:05:09;;;;;;;1.50;0.80;;;9.00;76.10;;;10.54;56.88;97000.03;5031619;28;20037;-41
2024/04/02 06:07:35;;;;;;;0.60;0.60;;;9.10;76.00;;;10.56;56.67;97001.50;5031348;28;20512;-41
2024/04/02 06:10:02;;;;;;;1.93;0.83;;;9.10;75.70;;;10.56;56.49;97017.47;5031143;28;20508;-42
2024/04/02 06:12:29;;;;;;;0.83;0.67;;;9.10;75.40;;;10.58;56.70;97022.63;5030888;28;20484;-42
2024/04/02 06:14:56;;;;;;;1.63;0.80;;;9.10;75.60;;;10.60;56.42;97016.16;5031123;28;20037;-42
2024/04/02 06:17:23;;;;;;;1.30;0.60;;;9.20;75.40;;;10.62;56.70;97031.91;5031262;28;20056;-42
2024/04/02 06:19:49;;;;;;;1.43;0.70;;;9.20;75.60;;;10.64;56.39;97038.75;5031143;28;20053;-42
2024/04/02 06:22:16;;;;;;;0.77;0.77;;;9.20;75.70;;;10.61;56.53;97039.09;4994069;28;20045;-42
2024/04/02 06:24:43;;;;;;;0.77;0.70;;;9.20;76.50;;;10.62;57.02;97035.44;5030890;28;20034;-42
2024/04/02 06:27:09;;;;;;;0.90;0.80;;;9.20;76.60;;;10.61;56.97;97036.44;5031058;28;20057;-42
2024/04/02 06:29:36;;;;;;;0.80;0.60;;;9.20;76.40;;;10.59;56.83;97033.13;5030533;28;20057;-42
2024/04/02 06:32:03;;;;;;;0.60;0.60;;;9.30;76.20;;;10.59;56.95;97032.28;5030662;28;20041;-42
2024/04/02 06:34:30;;;;;;;1.07;0.70;;;9.20;76.50;;;10.63;57.16;97038.91;5030321;28;20050;-42
2024/04/02 06:36:56;;;;;;;0.90;0.73;;;9.30;76.20;;;10.64;57.22;97040.56;5029951;28;20056;-42
2024/04/02 06:39:23;;;;;;;1.23;0.67;;;9.30;76.30;;;10.63;57.25;97042.41;5030781;28;20041;-42
2024/04/02 06:41:50;;;;;;;0.40;0.40;;;9.30;76.60;;;10.62;57.42;97047.91;5013741;28;20045;-42
2024/04/02 06:44:16;;;;;;;0.50;0.50;;;9.30;77.90;;;10.64;57.56;97049.41;5030505;28;20033;-40
2024/04/02 06:46:43;;;;;;;0.50;0.50;;;9.30;77.30;;;10.64;57.48;97053.88;5013904;28;20050;-40
2024/04/02 06:49:09;;;;;;;0.60;0.60;;;9.30;77.50;;;10.66;57.35;97056.38;5030659;28;20049;-40
2024/04/02 06:51:37;;;;;;;0.63;0.63;;;9.30;77.40;;;10.64;57.64;97049.41;5030415;28;20440;-40
2024/04/02 06:54:03;;;;;;;1.03;0.70;;;9.30;77.60;;;10.54;57.93;97053.28;5029841;28;20052;-40
2024/04/02 06:56:30;;;;;;;1.07;0.70;;;9.20;78.30;;;10.61;58.09;97057.72;5029827;28;20052;-42
2024/04/02 06:58:57;;;;;;;2.00;0.80;;;9.30;78.90;;;10.65;57.77;97063.53;5030488;28;20064;-41
2024/04/02 07:01:24;;;;;;;0.67;0.67;;;9.30;78.80;;;10.71;58.24;97062.81;5013805;28;20555;-41
2024/04/02 07:03:51;;;;;;;0.83;0.60;;;9.30;79.20;;;10.78;58.15;97061.13;5029766;28;20053;-41
2024/04/02 07:06:18;;;;;;;1.13;0.80;;;9.40;78.80;;;10.78;58.27;97062.97;5030099;28;20037;-42
2024/04/02 07:08:47;;;;;;;0.93;0.70;;;9.40;79.10;;;10.76;58.13;97059.63;5030204;28;20041;-42
2024/04/02 07:11:15;;;;;;;1.20;0.80;;;9.40;78.80;;;10.76;58.10;97060.47;5030099;28;20052;-42
2024/04/02 07:13:42;;;;;;;1.77;0.80;;;9.30;79.30;;;10.73;58.13;97062.66;4996934;28;20058;-41
2024/04/02 07:16:08;;;;;;;1.27;0.77;;;9.30;79.50;;;10.74;58.51;97065.13;5030087;28;20037;-42
2024/04/02 07:18:36;;;;;;;3.77;1.00;;;9.30;79.90;;;10.78;58.15;97063.78;5013373;28;20056;-42
2024/04/02 07:21:05;;;;;;;1.27;0.80;;;9.40;79.50;;;10.80;57.73;97077.75;5030145;28;20044;-41
2024/04/02 07:23:33;;;;;;;1.33;0.90;;;9.40;78.10;;;10.78;58.30;97062.97;5028910;28;20416;-42
2024/04/02 07:26:00;;;;;;;3.13;1.03;;;9.50;78.60;;;10.81;57.51;97059.91;5029974;28;20044;-42
2024/04/02 07:28:27;;;;;;;1.30;1.10;;;9.50;77.30;;;10.82;57.79;97061.59;5029768;28;20048;-41
2024/04/02 07:30:54;;;;;;;2.83;1.00;;;9.50;77.10;;;10.83;57.55;97063.25;5029704;28;20053;-42
2024/04/02 07:33:20;;;;;;;4.13;1.80;;;9.50;75.60;;;10.80;57.03;97068.94;5029650;28;20049;-42
2024/04/02 07:35:48;;;;;;;1.87;1.13;;;9.50;74.80;;;10.87;56.92;97059.22;5029345;28;20052;-42
2024/04/02 07:38:14;;;;;;;3.60;1.33;;;9.60;74.50;;;10.98;56.52;97068.63;5029757;28;20493;-42
2024/04/02 07:40:43;;;;;;;3.30;1.27;;;9.70;73.60;;;11.03;55.63;97066.25;5027955;28;20095;-42
2024/04/02 07:43:09;;;;;;;4.43;1.37;;;9.80;71.10;;;11.01;55.79;97069.13;5028509;28;20041;-44
2024/04/02 07:45:37;;;;;;;4.30;1.30;;;9.80;71.00;;;11.17;56.05;97068.16;5029753;28;20049;-42
2024/04/02 07:48:04;;;;;;;2.37;1.93;;;10.00;72.10;;;11.34;54.91;97076.00;5029533;28;20501;-42
2024/04/02 07:50:37;;;;;;;3.00;1.10;;;10.20;70.80;;;11.30;54.17;97080.88;5029608;28;20045;-41
2024/04/02 07:53:04;;;;;;;2.97;1.30;;;10.20;69.20;;;11.43;54.46;97075.75;5021507;28;20523;-42
2024/04/02 07:55:30;;;;;;;9.77;1.90;;;10.30;69.70;;;11.53;54.96;97085.31;5029420;28;20049;-42
2024/04/02 07:57:57;;;;;;;2.83;1.07;;;10.40;69.80;;;11.66;54.08;97098.88;5029655;28;20041;-42
2024/04/02 08:00:24;;;;;;;3.87;1.03;;;10.50;68.40;;;11.71;53.96;97096.50;5013528;28;20040;-42
2024/04/02 08:02:51;;;;;;;4.70;1.30;;;10.50;68.10;;;11.68;53.75;97102.19;5029306;28;20497;-42
2024/04/02 08:05:17;;;;;;;5.07;1.30;;;10.50;66.90;;;11.66;52.54;97116.72;5029659;28;20497;-41
2024/04/02 08:07:47;;;;;;;2.63;1.30;;;10.50;65.20;;;11.54;52.18;97105.66;5029528;28;20049;-41
2024/04/02 08:10:14;;;;;;;5.07;1.80;;;10.40;64.80;;;11.53;51.39;97131.47;5029415;28;20048;-41
2024/04/02 08:12:41;;;;;;;2.03;1.70;;;10.40;63.70;;;11.53;51.47;97134.13;5012896;28;20056;-41
2024/04/02 08:15:08;;;;;;;3.20;0.80;;;10.40;65.30;;;11.57;51.85;97119.47;5029936;28;20042;-41
2024/04/02 08:17:35;;;;;;;6.60;1.43;;;10.40;64.80;;;11.60;51.81;97127.09;5029547;28;20416;-41
2024/04/02 08:20:06;;;;;;;4.50;2.27;;;10.40;65.20;;;11.62;51.38;97130.38;5013392;28;20519;-41
2024/04/02 08:22:32;;;;;;;6.67;2.00;;;10.50;64.40;;;11.58;51.55;97136.28;5029325;28;20049;-41
2024/04/02 08:24:59;;;;;;;6.10;2.00;;;10.30;64.90;;;11.53;51.06;97139.47;5029301;28;20485;-41
2024/04/02 08:27:27;;;;;;;4.87;1.07;;;10.30;62.40;;;11.61;51.67;97144.75;5030060;28;20054;-41
2024/04/02 08:29:54;;;;;;;3.57;1.07;;;10.40;64.30;;;11.69;51.27;97146.50;5029955;28;20076;-41
2024/04/02 08:32:22;;;;;;;4.77;1.93;;;10.40;64.40;;;11.72;51.12;97151.47;5029594;28;20041;-42
2024/04/02 08:34:49;;;;;;;2.90;1.20;;;10.50;64.00;;;11.69;50.41;97165.19;5029844;28;20401;-41
2024/04/02 08:37:16;;;;;;;2.77;1.17;;;10.50;63.30;;;11.78;51.01;97150.75;5029890;28;20432;-41
2024/04/02 08:39:42;;;;;;;3.13;1.10;;;10.50;64.10;;;11.75;50.71;97156.47;5029477;28;20037;-41
2024/04/02 08:42:09;;;;;;;2.00;1.00;;;10.50;63.30;;;11.74;49.95;97164.63;5029521;28;20108;-41
2024/04/02 08:44:36;;;;;;;4.97;2.13;;;10.50;62.00;;;11.74;50.51;97178.78;5029652;28;20531;-41
2024/04/02 08:47:03;;;;;;;4.93;1.23;;;10.50;63.70;;;11.64;51.75;97164.88;5028396;28;20408;-41
2024/04/02 08:49:32;;;;;;;2.20;1.17;;;10.40;66.60;;;11.63;52.57;97169.41;5021613;28;20057;-41
2024/04/02 08:52:01;;;;;;;2.97;2.00;;;10.30;68.00;;;11.63;52.23;97171.22;5012864;28;20049;-41
2024/04/02 08:54:30;;;;;;;3.70;1.17;;;10.30;67.60;;;11.66;51.78;97173.53;5029546;28;20052;-41
2024/04/02 08:56:57;;;;;;;4.13;1.30;;;10.30;66.40;;;11.74;51.88;97175.28;5029441;28;20037;-41
2024/04/02 08:59:27;;;;;;;4.90;1.20;;;10.40;67.00;;;11.76;52.18;97179.44;5031395;28;20040;-41
2024/04/02 09:01:58;;;;;;;2.90;1.10;;;10.50;66.60;;;11.91;51.93;97176.03;5032403;28;20247;-42
2024/04/02 09:04:26;;;;;;;2.50;1.10;;;10.60;66.10;;;12.02;51.73;97183.59;5033021;28;20539;-41
2024/04/02 09:06:53;;;;;;;2.97;1.10;;;10.70;65.80;;;12.09;51.29;97197.03;5015793;28;20053;-42
2024/04/02 09:09:23;;;;;;;4.73;1.43;;;10.70;65.50;;;12.10;51.42;97174.69;5033169;28;20408;-42
2024/04/02 09:11:51;;;;;;;4.90;1.33;;;10.80;65.00;;;12.16;51.39;97168.59;5032370;28;20045;-41
2024/04/02 09:14:22;;;;;;;1.37;1.10;;;10.80;65.60;;;12.15;50.99;97194.44;5016713;28;20041;-41
2024/04/02 09:16:52;;;;;;;5.47;1.43;;;10.80;65.00;;;12.17;51.02;97180.91;5032721;28;20048;-41
2024/04/02 09:19:19;;;;;;;1.53;0.90;;;10.80;64.70;;;12.16;49.68;97174.75;5032718;28;20857;-41
2024/04/02 09:21:46;;;;;;;3.10;1.40;;;10.80;61.40;;;12.23;49.32;97168.69;5014223;28;20502;-41
2024/04/02 09:24:13;;;;;;;4.63;1.70;;;10.90;60.40;;;12.21;49.55;97182.22;5015208;28;20033;-41
2024/04/02 09:26:40;;;;;;;3.07;1.30;;;11.00;61.50;;;12.30;49.60;97175.78;5032668;28;20046;-41
2024/04/02 09:29:07;;;;;;;4.03;1.40;;;11.10;62.40;;;12.40;49.01;97183.50;5024573;28;20046;-41
2024/04/02 09:31:33;;;;;;;4.63;1.27;;;11.20;60.60;;;12.36;48.18;97164.38;5015725;28;20060;-41
2024/04/02 09:34:09;;;;;;;2.23;1.30;;;11.20;58.70;;;12.38;47.87;97175.69;5015372;28;20046;-42
2024/04/02 09:36:43;;;;;;;3.43;1.40;;;11.20;57.80;;;12.40;47.99;97176.31;5032408;28;20061;-41
2024/04/02 09:39:15;;;;;;;5.33;1.67;;;11.20;57.70;;;12.45;47.90;97175.78;5024129;28;20042;-41
2024/04/02 09:41:45;;;;;;;4.47;1.53;;;11.20;58.30;;;12.44;47.11;97174.13;5031418;28;20512;-41
2024/04/02 09:44:15;;;;;;;3.03;1.27;;;11.20;56.70;;;12.47;46.87;97171.09;5015463;28;20416;-41
2024/04/02 09:46:43;;;;;;;3.80;1.50;;;11.30;57.80;;;12.48;46.48;97167.41;5031953;28;20046;-41
2024/04/02 09:49:14;;;;;;;2.67;1.10;;;11.30;57.00;;;12.28;45.43;97169.78;5014672;28;20420;-41
2024/04/02 09:51:42;;;;;;;3.43;1.10;;;11.10;55.00;;;12.42;46.45;97165.47;5031534;28;20045;-42
2024/04/02 09:54:09;;;;;;;0.90;0.80;;;11.20;56.70;;;12.40;46.25;97168.31;5006989;28;20053;-41
2024/04/02 09:56:37;;;;;;;2.40;1.27;;;11.20;56.70;;;12.36;46.96;97167.03;5015506;28;20420;-42
2024/04/02 09:59:06;;;;;;;4.20;1.47;;;11.20;56.80;;;12.40;46.45;97176.31;5031430;28;20082;-40
2024/04/02 10:01:39;;;;;;;2.27;1.03;;;11.20;56.60;;;12.31;45.50;97168.59;5016020;28;20034;-40
2024/04/02 10:04:09;;;;;;;;;;;11.10;54.60;;;12.14;45.07;97179.44;4998979;28;20049;-41
2024/04/02 10:06:37;;;;;;;2.73;1.03;;;11.00;54.60;;;12.30;45.66;97178.44;5016069;28;20134;-41
2024/04/02 10:09:09;;;;;;;4.53;1.80;;;11.10;55.10;;;12.33;45.29;97171.91;5031500;28;20045;-41
2024/04/02 10:11:38;;;;;;;4.80;1.50;;;11.10;54.50;;;12.43;45.29;97175.16;5031776;28;20056;-41
2024/04/02 10:14:07;;;;;;;2.50;1.20;;;11.30;55.10;;;12.50;45.03;97170.72;5031162;28;20528;-40
2024/04/02 10:16:45;;;;;;;2.60;1.10;;;11.30;55.00;;;12.54;45.19;97187.19;5015167;28;20057;-40
2024/04/02 10:19:16;;;;;;;2.93;1.43;;;11.40;55.00;;;12.56;44.90;97186.00;5023848;28;20041;-41
2024/04/02 10:21:43;;;;;;;3.63;1.20;;;11.40;54.60;;;12.49;44.71;97189.59;5030838;28;20037;-41
2024/04/02 10:24:13;;;;;;;4.10;1.40;;;11.40;54.10;;;12.55;45.06;97183.53;5006566;28;20041;-40
2024/04/02 10:26:41;;;;;;;5.20;2.57;;;11.40;53.70;;;12.56;44.11;97188.69;5031215;28;20041;-41
2024/04/02 10:29:09;;;;;;;2.77;1.40;;;11.40;53.40;;;12.60;44.21;97183.78;5030920;28;20132;-41